sensor_id;sensor_type;location;lat;lon;timestamp;P1;durP1;ratioP1;P2;durP2;ratioP2
68212;SDS011;55035;47.792;8.724;2022-07-10T00:00:15;9.18;;;3.80;;
68212;SDS011;55035;47.792;8.724;2022-07-10T00:02:43;8.60;;;3.53;;
68212;SDS011;55035;47.792;8.724;2022-07-10T00:05:11;7.93;;;3.75;;
68212;SDS011;55035;47.792;8.724;2022-07-10T00:07:39;7.40;;;3.83;;
68212;SDS011;55035;47.792;8.724;2022-07-10T00:10:06;8.10;;;3.70;;
68212;SDS011;55035;47.792;8.724;2022-07-10T00:12:34;8.20;;;3.70;;
68212;SDS011;55035;47.792;8.724;2022-07-10T00:15:01;7.30;;;3.97;;
68212;SDS011;55035;47.792;8.724;2022-07-10T00:17:28;8.57;;;3.70;;
68212;SDS011;55035;47.792;8.724;2022-07-10T00:19:55;7.30;;;3.30;;
68212;SDS011;55035;47.792;8.724;2022-07-10T00:22:24;8.43;;;3.47;;
68212;SDS011;55035;47.792;8.724;2022-07-10T00:24:51;7.05;;;3.47;;
68212;SDS011;55035;47.792;8.724;2022-07-10T00:27:18;8.05;;;3.70;;
68212;SDS011;55035;47.792;8.724;2022-07-10T00:29:45;7.40;;;3.22;;
68212;SDS011;55035;47.792;8.724;2022-07-10T00:32:12;8.13;;;3.58;;
68212;SDS011;55035;47.792;8.724;2022-07-10T00:34:39;7.35;;;3.35;;
68212;SDS011;55035;47.792;8.724;2022-07-10T00:37:07;6.85;;;3.30;;
68212;SDS011;55035;47.792;8.724;2022-07-10T00:39:35;7.40;;;3.38;;
68212;SDS011;55035;47.792;8.724;2022-07-10T00:42:06;7.43;;;3.30;;
68212;SDS011;55035;47.792;8.724;2022-07-10T00:44:34;6.90;;;3.42;;
68212;SDS011;55035;47.792;8.724;2022-07-10T00:47:01;7.68;;;3.70;;
68212;SDS011;55035;47.792;8.724;2022-07-10T00:49:28;6.45;;;3.25;;
68212;SDS011;55035;47.792;8.724;2022-07-10T00:51:55;8.00;;;3.80;;
68212;SDS011;55035;47.792;8.724;2022-07-10T00:54:23;6.95;;;3.50;;
68212;SDS011;55035;47.792;8.724;2022-07-10T00:56:52;7.03;;;3.55;;
68212;SDS011;55035;47.792;8.724;2022-07-10T00:59:19;7.37;;;3.30;;
68212;SDS011;55035;47.792;8.724;2022-07-10T01:01:47;6.80;;;3.40;;
68212;SDS011;55035;47.792;8.724;2022-07-10T01:04:14;7.00;;;3.20;;
68212;SDS011;55035;47.792;8.724;2022-07-10T01:06:41;8.30;;;3.50;;
68212;SDS011;55035;47.792;8.724;2022-07-10T01:09:09;8.23;;;3.70;;
68212;SDS011;55035;47.792;8.724;2022-07-10T01:11:36;7.60;;;3.50;;
68212;SDS011;55035;47.792;8.724;2022-07-10T01:14:04;7.80;;;3.70;;
68212;SDS011;55035;47.792;8.724;2022-07-10T01:16:32;8.13;;;3.80;;
68212;SDS011;55035;47.792;8.724;2022-07-10T01:18:59;8.52;;;3.80;;
68212;SDS011;55035;47.792;8.724;2022-07-10T01:21:27;7.28;;;3.70;;
68212;SDS011;55035;47.792;8.724;2022-07-10T01:23:55;7.32;;;3.80;;
68212;SDS011;55035;47.792;8.724;2022-07-10T01:26:22;7.78;;;3.65;;
68212;SDS011;55035;47.792;8.724;2022-07-10T01:28:50;7.38;;;3.60;;
68212;SDS011;55035;47.792;8.724;2022-07-10T01:31:17;7.50;;;3.70;;
68212;SDS011;55035;47.792;8.724;2022-07-10T01:33:44;8.00;;;3.67;;
68212;SDS011;55035;47.792;8.724;2022-07-10T01:36:11;7.75;;;3.60;;
68212;SDS011;55035;47.792;8.724;2022-07-10T01:38:40;7.72;;;3.95;;
68212;SDS011;55035;47.792;8.724;2022-07-10T01:41:07;8.05;;;3.88;;
68212;SDS011;55035;47.792;8.724;2022-07-10T01:43:35;7.03;;;3.30;;
68212;SDS011;55035;47.792;8.724;2022-07-10T01:46:01;8.70;;;3.78;;
68212;SDS011;55035;47.792;8.724;2022-07-10T01:48:29;7.68;;;3.88;;
68212;SDS011;55035;47.792;8.724;2022-07-10T01:50:57;8.18;;;3.92;;
68212;SDS011;55035;47.792;8.724;2022-07-10T01:53:23;8.50;;;4.47;;
68212;SDS011;55035;47.792;8.724;2022-07-10T01:55:51;7.97;;;4.03;;
68212;SDS011;55035;47.792;8.724;2022-07-10T01:58:19;7.22;;;3.95;;
68212;SDS011;55035;47.792;8.724;2022-07-10T02:00:45;9.38;;;4.78;;
68212;SDS011;55035;47.792;8.724;2022-07-10T02:03:12;12.15;;;7.25;;
68212;SDS011;55035;47.792;8.724;2022-07-10T02:05:57;11.20;;;5.88;;
68212;SDS011;55035;47.792;8.724;2022-07-10T02:08:24;10.02;;;5.68;;
68212;SDS011;55035;47.792;8.724;2022-07-10T02:10:52;7.90;;;4.30;;
68212;SDS011;55035;47.792;8.724;2022-07-10T02:13:19;8.43;;;4.30;;
68212;SDS011;55035;47.792;8.724;2022-07-10T02:15:46;8.80;;;4.85;;
68212;SDS011;55035;47.792;8.724;2022-07-10T02:18:14;7.80;;;4.30;;
68212;SDS011;55035;47.792;8.724;2022-07-10T02:20:41;8.02;;;4.50;;
68212;SDS011;55035;47.792;8.724;2022-07-10T02:23:08;7.70;;;4.30;;
68212;SDS011;55035;47.792;8.724;2022-07-10T02:25:35;8.27;;;4.38;;
68212;SDS011;55035;47.792;8.724;2022-07-10T02:28:04;7.57;;;4.18;;
68212;SDS011;55035;47.792;8.724;2022-07-10T02:30:30;8.90;;;4.35;;
68212;SDS011;55035;47.792;8.724;2022-07-10T02:32:57;8.00;;;4.55;;
68212;SDS011;55035;47.792;8.724;2022-07-10T02:35:24;8.77;;;4.30;;
68212;SDS011;55035;47.792;8.724;2022-07-10T02:37:51;8.95;;;4.60;;
68212;SDS011;55035;47.792;8.724;2022-07-10T02:40:18;8.50;;;4.78;;
68212;SDS011;55035;47.792;8.724;2022-07-10T02:42:45;7.75;;;4.47;;
68212;SDS011;55035;47.792;8.724;2022-07-10T02:45:13;8.13;;;4.57;;
68212;SDS011;55035;47.792;8.724;2022-07-10T02:47:40;8.40;;;4.70;;
68212;SDS011;55035;47.792;8.724;2022-07-10T02:50:08;8.68;;;4.88;;
68212;SDS011;55035;47.792;8.724;2022-07-10T02:52:36;7.68;;;4.60;;
68212;SDS011;55035;47.792;8.724;2022-07-10T02:55:03;8.52;;;4.57;;
68212;SDS011;55035;47.792;8.724;2022-07-10T02:57:30;8.60;;;4.47;;
68212;SDS011;55035;47.792;8.724;2022-07-10T02:59:57;9.35;;;4.55;;
68212;SDS011;55035;47.792;8.724;2022-07-10T03:02:25;8.75;;;4.88;;
68212;SDS011;55035;47.792;8.724;2022-07-10T03:04:52;8.48;;;4.60;;
68212;SDS011;55035;47.792;8.724;2022-07-10T03:07:20;8.43;;;4.50;;
68212;SDS011;55035;47.792;8.724;2022-07-10T03:09:46;8.32;;;4.20;;
68212;SDS011;55035;47.792;8.724;2022-07-10T03:12:13;8.35;;;4.68;;
68212;SDS011;55035;47.792;8.724;2022-07-10T03:14:40;9.20;;;4.20;;
68212;SDS011;55035;47.792;8.724;2022-07-10T03:17:07;9.50;;;5.30;;
68212;SDS011;55035;47.792;8.724;2022-07-10T03:19:36;7.57;;;4.50;;
68212;SDS011;55035;47.792;8.724;2022-07-10T03:22:03;9.00;;;4.45;;
68212;SDS011;55035;47.792;8.724;2022-07-10T03:24:30;8.50;;;4.50;;
68212;SDS011;55035;47.792;8.724;2022-07-10T03:26:57;8.57;;;4.60;;
68212;SDS011;55035;47.792;8.724;2022-07-10T03:29:25;7.55;;;4.40;;
68212;SDS011;55035;47.792;8.724;2022-07-10T03:31:52;7.80;;;4.60;;
68212;SDS011;55035;47.792;8.724;2022-07-10T03:34:18;8.43;;;4.85;;
68212;SDS011;55035;47.792;8.724;2022-07-10T03:36:47;7.80;;;4.40;;
68212;SDS011;55035;47.792;8.724;2022-07-10T03:39:14;8.10;;;4.85;;
68212;SDS011;55035;47.792;8.724;2022-07-10T03:41:41;8.60;;;4.68;;
68212;SDS011;55035;47.792;8.724;2022-07-10T03:44:08;8.88;;;4.82;;
68212;SDS011;55035;47.792;8.724;2022-07-10T03:46:35;8.07;;;4.80;;
68212;SDS011;55035;47.792;8.724;2022-07-10T03:49:03;8.90;;;4.60;;
68212;SDS011;55035;47.792;8.724;2022-07-10T03:51:29;8.38;;;4.68;;
68212;SDS011;55035;47.792;8.724;2022-07-10T03:53:59;9.65;;;5.10;;
68212;SDS011;55035;47.792;8.724;2022-07-10T03:56:26;9.40;;;4.78;;
68212;SDS011;55035;47.792;8.724;2022-07-10T03:59:10;11.20;;;6.40;;
68212;SDS011;55035;47.792;8.724;2022-07-10T04:01:37;9.75;;;5.50;;
68212;SDS011;55035;47.792;8.724;2022-07-10T04:04:04;10.05;;;5.88;;
68212;SDS011;55035;47.792;8.724;2022-07-10T04:06:31;10.00;;;5.40;;
68212;SDS011;55035;47.792;8.724;2022-07-10T04:09:00;8.68;;;5.03;;
68212;SDS011;55035;47.792;8.724;2022-07-10T04:11:27;8.55;;;4.88;;
68212;SDS011;55035;47.792;8.724;2022-07-10T04:13:54;8.50;;;5.15;;
68212;SDS011;55035;47.792;8.724;2022-07-10T04:16:21;9.02;;;4.80;;
68212;SDS011;55035;47.792;8.724;2022-07-10T04:18:48;8.50;;;4.80;;
68212;SDS011;55035;47.792;8.724;2022-07-10T04:21:15;9.50;;;5.25;;
68212;SDS011;55035;47.792;8.724;2022-07-10T04:23:42;7.65;;;4.68;;
68212;SDS011;55035;47.792;8.724;2022-07-10T04:26:11;9.32;;;4.72;;
68212;SDS011;55035;47.792;8.724;2022-07-10T04:28:38;8.25;;;4.88;;
68212;SDS011;55035;47.792;8.724;2022-07-10T04:31:05;8.90;;;4.82;;
68212;SDS011;55035;47.792;8.724;2022-07-10T04:33:32;8.93;;;4.70;;
68212;SDS011;55035;47.792;8.724;2022-07-10T04:36:00;8.00;;;4.75;;
68212;SDS011;55035;47.792;8.724;2022-07-10T04:38:26;8.43;;;4.82;;
68212;SDS011;55035;47.792;8.724;2022-07-10T04:40:54;8.90;;;5.20;;
68212;SDS011;55035;47.792;8.724;2022-07-10T04:43:22;8.80;;;4.60;;
68212;SDS011;55035;47.792;8.724;2022-07-10T04:45:49;8.32;;;4.60;;
68212;SDS011;55035;47.792;8.724;2022-07-10T04:48:16;8.43;;;4.50;;
68212;SDS011;55035;47.792;8.724;2022-07-10T04:50:43;8.68;;;4.80;;
68212;SDS011;55035;47.792;8.724;2022-07-10T04:53:10;9.13;;;4.70;;
68212;SDS011;55035;47.792;8.724;2022-07-10T04:55:37;7.53;;;4.50;;
68212;SDS011;55035;47.792;8.724;2022-07-10T04:58:04;7.30;;;4.30;;
68212;SDS011;55035;47.792;8.724;2022-07-10T05:00:33;8.50;;;4.63;;
68212;SDS011;55035;47.792;8.724;2022-07-10T05:03:00;7.63;;;4.40;;
68212;SDS011;55035;47.792;8.724;2022-07-10T05:05:27;7.82;;;4.50;;
68212;SDS011;55035;47.792;8.724;2022-07-10T05:07:54;9.15;;;4.93;;
68212;SDS011;55035;47.792;8.724;2022-07-10T05:10:21;8.68;;;4.60;;
68212;SDS011;55035;47.792;8.724;2022-07-10T05:12:48;8.13;;;4.60;;
68212;SDS011;55035;47.792;8.724;2022-07-10T05:15:15;8.27;;;4.82;;
68212;SDS011;55035;47.792;8.724;2022-07-10T05:17:43;8.15;;;4.60;;
68212;SDS011;55035;47.792;8.724;2022-07-10T05:20:10;7.95;;;4.30;;
68212;SDS011;55035;47.792;8.724;2022-07-10T05:22:38;8.07;;;4.25;;
68212;SDS011;55035;47.792;8.724;2022-07-10T05:25:05;7.70;;;4.50;;
68212;SDS011;55035;47.792;8.724;2022-07-10T05:27:32;8.25;;;4.60;;
68212;SDS011;55035;47.792;8.724;2022-07-10T05:29:59;9.18;;;5.00;;
68212;SDS011;55035;47.792;8.724;2022-07-10T05:32:27;7.68;;;4.18;;
68212;SDS011;55035;47.792;8.724;2022-07-10T05:34:58;8.93;;;4.28;;
68212;SDS011;55035;47.792;8.724;2022-07-10T05:37:25;8.00;;;4.30;;
68212;SDS011;55035;47.792;8.724;2022-07-10T05:39:52;8.27;;;4.43;;
68212;SDS011;55035;47.792;8.724;2022-07-10T05:42:19;7.55;;;4.40;;
68212;SDS011;55035;47.792;8.724;2022-07-10T05:44:45;8.07;;;4.60;;
68212;SDS011;55035;47.792;8.724;2022-07-10T05:47:13;9.75;;;4.68;;
68212;SDS011;55035;47.792;8.724;2022-07-10T05:49:40;7.70;;;4.37;;
68212;SDS011;55035;47.792;8.724;2022-07-10T05:52:08;7.60;;;4.20;;
68212;SDS011;55035;47.792;8.724;2022-07-10T05:54:35;7.50;;;4.00;;
68212;SDS011;55035;47.792;8.724;2022-07-10T05:57:03;8.30;;;4.20;;
68212;SDS011;55035;47.792;8.724;2022-07-10T05:59:32;8.07;;;4.28;;
68212;SDS011;55035;47.792;8.724;2022-07-10T06:01:59;8.50;;;4.50;;
68212;SDS011;55035;47.792;8.724;2022-07-10T06:04:26;7.93;;;4.28;;
68212;SDS011;55035;47.792;8.724;2022-07-10T06:06:54;8.18;;;4.10;;
68212;SDS011;55035;47.792;8.724;2022-07-10T06:09:22;7.60;;;4.30;;
68212;SDS011;55035;47.792;8.724;2022-07-10T06:11:49;8.45;;;4.75;;
68212;SDS011;55035;47.792;8.724;2022-07-10T06:14:16;9.15;;;4.50;;
68212;SDS011;55035;47.792;8.724;2022-07-10T06:16:43;8.73;;;4.10;;
68212;SDS011;55035;47.792;8.724;2022-07-10T06:19:10;7.68;;;4.10;;
68212;SDS011;55035;47.792;8.724;2022-07-10T06:21:38;8.32;;;4.70;;
68212;SDS011;55035;47.792;8.724;2022-07-10T06:24:05;8.45;;;4.65;;
68212;SDS011;55035;47.792;8.724;2022-07-10T06:26:33;7.97;;;4.38;;
68212;SDS011;55035;47.792;8.724;2022-07-10T06:29:00;8.80;;;4.57;;
68212;SDS011;55035;47.792;8.724;2022-07-10T06:31:27;8.40;;;4.30;;
68212;SDS011;55035;47.792;8.724;2022-07-10T06:33:55;9.40;;;4.20;;
68212;SDS011;55035;47.792;8.724;2022-07-10T06:36:22;7.72;;;4.15;;
68212;SDS011;55035;47.792;8.724;2022-07-10T06:38:49;8.45;;;4.43;;
68212;SDS011;55035;47.792;8.724;2022-07-10T06:41:19;8.60;;;4.40;;
68212;SDS011;55035;47.792;8.724;2022-07-10T06:43:47;7.82;;;4.45;;
68212;SDS011;55035;47.792;8.724;2022-07-10T06:46:14;8.50;;;4.22;;
68212;SDS011;55035;47.792;8.724;2022-07-10T06:48:41;8.15;;;4.40;;
68212;SDS011;55035;47.792;8.724;2022-07-10T06:51:07;7.25;;;4.10;;
68212;SDS011;55035;47.792;8.724;2022-07-10T06:53:34;9.80;;;5.18;;
68212;SDS011;55035;47.792;8.724;2022-07-10T06:56:01;7.88;;;4.75;;
68212;SDS011;55035;47.792;8.724;2022-07-10T06:58:28;7.93;;;4.10;;
68212;SDS011;55035;47.792;8.724;2022-07-10T07:00:57;8.07;;;4.03;;
68212;SDS011;55035;47.792;8.724;2022-07-10T07:03:24;7.70;;;3.90;;
68212;SDS011;55035;47.792;8.724;2022-07-10T07:05:51;8.53;;;3.90;;
68212;SDS011;55035;47.792;8.724;2022-07-10T07:08:18;9.25;;;3.90;;
68212;SDS011;55035;47.792;8.724;2022-07-10T07:10:45;8.73;;;4.25;;
68212;SDS011;55035;47.792;8.724;2022-07-10T07:13:12;8.63;;;4.03;;
68212;SDS011;55035;47.792;8.724;2022-07-10T07:15:39;7.00;;;3.63;;
68212;SDS011;55035;47.792;8.724;2022-07-10T07:18:13;7.65;;;4.15;;
68212;SDS011;55035;47.792;8.724;2022-07-10T07:20:42;7.88;;;3.78;;
68212;SDS011;55035;47.792;8.724;2022-07-10T07:23:27;7.77;;;4.00;;
68212;SDS011;55035;47.792;8.724;2022-07-10T07:25:54;8.88;;;3.97;;
68212;SDS011;55035;47.792;8.724;2022-07-10T07:28:21;8.82;;;3.85;;
68212;SDS011;55035;47.792;8.724;2022-07-10T07:30:49;6.90;;;3.50;;
68212;SDS011;55035;47.792;8.724;2022-07-10T07:33:18;7.00;;;3.67;;
68212;SDS011;55035;47.792;8.724;2022-07-10T07:35:45;7.75;;;3.83;;
68212;SDS011;55035;47.792;8.724;2022-07-10T07:38:12;7.97;;;4.25;;
68212;SDS011;55035;47.792;8.724;2022-07-10T07:40:40;8.00;;;4.10;;
68212;SDS011;55035;47.792;8.724;2022-07-10T07:43:08;7.60;;;3.87;;
68212;SDS011;55035;47.792;8.724;2022-07-10T07:45:35;6.90;;;3.90;;
68212;SDS011;55035;47.792;8.724;2022-07-10T07:48:02;7.40;;;3.72;;
68212;SDS011;55035;47.792;8.724;2022-07-10T07:50:33;8.25;;;4.25;;
68212;SDS011;55035;47.792;8.724;2022-07-10T07:52:59;7.80;;;4.10;;
68212;SDS011;55035;47.792;8.724;2022-07-10T07:55:27;8.30;;;4.50;;
68212;SDS011;55035;47.792;8.724;2022-07-10T07:57:54;8.75;;;4.00;;
68212;SDS011;55035;47.792;8.724;2022-07-10T08:00:22;9.20;;;3.72;;
68212;SDS011;55035;47.792;8.724;2022-07-10T08:02:49;6.53;;;3.85;;
68212;SDS011;55035;47.792;8.724;2022-07-10T08:05:16;7.33;;;3.90;;
68212;SDS011;55035;47.792;8.724;2022-07-10T08:07:50;7.28;;;3.80;;
68212;SDS011;55035;47.792;8.724;2022-07-10T08:10:17;6.73;;;3.93;;
68212;SDS011;55035;47.792;8.724;2022-07-10T08:12:44;8.73;;;4.50;;
68212;SDS011;55035;47.792;8.724;2022-07-10T08:15:12;7.88;;;4.70;;
68212;SDS011;55035;47.792;8.724;2022-07-10T08:17:40;9.13;;;5.70;;
68212;SDS011;55035;47.792;8.724;2022-07-10T08:20:11;7.60;;;4.70;;
68212;SDS011;55035;47.792;8.724;2022-07-10T08:22:38;8.68;;;4.32;;
68212;SDS011;55035;47.792;8.724;2022-07-10T08:25:07;7.87;;;4.47;;
68212;SDS011;55035;47.792;8.724;2022-07-10T08:27:34;8.52;;;4.60;;
68212;SDS011;55035;47.792;8.724;2022-07-10T08:30:02;13.43;;;7.85;;
68212;SDS011;55035;47.792;8.724;2022-07-10T08:32:29;9.33;;;4.80;;
68212;SDS011;55035;47.792;8.724;2022-07-10T08:34:59;8.05;;;4.22;;
68212;SDS011;55035;47.792;8.724;2022-07-10T08:37:26;9.40;;;4.82;;
68212;SDS011;55035;47.792;8.724;2022-07-10T08:39:53;7.80;;;4.20;;
68212;SDS011;55035;47.792;8.724;2022-07-10T08:42:21;7.32;;;4.15;;
68212;SDS011;55035;47.792;8.724;2022-07-10T08:44:49;7.85;;;4.20;;
68212;SDS011;55035;47.792;8.724;2022-07-10T08:47:21;7.72;;;4.10;;
68212;SDS011;55035;47.792;8.724;2022-07-10T08:49:48;7.43;;;3.90;;
68212;SDS011;55035;47.792;8.724;2022-07-10T08:52:20;7.45;;;3.70;;
68212;SDS011;55035;47.792;8.724;2022-07-10T08:54:50;7.20;;;3.90;;
68212;SDS011;55035;47.792;8.724;2022-07-10T08:57:16;8.20;;;3.55;;
68212;SDS011;55035;47.792;8.724;2022-07-10T08:59:45;7.00;;;3.50;;
68212;SDS011;55035;47.792;8.724;2022-07-10T09:02:12;8.32;;;3.72;;
68212;SDS011;55035;47.792;8.724;2022-07-10T09:04:39;7.15;;;3.70;;
68212;SDS011;55035;47.792;8.724;2022-07-10T09:07:06;7.30;;;3.17;;
68212;SDS011;55035;47.792;8.724;2022-07-10T09:09:37;6.78;;;3.00;;
68212;SDS011;55035;47.792;8.724;2022-07-10T09:12:17;6.68;;;3.28;;
68212;SDS011;55035;47.792;8.724;2022-07-10T09:14:45;7.43;;;3.13;;
68212;SDS011;55035;47.792;8.724;2022-07-10T09:17:12;7.03;;;3.07;;
68212;SDS011;55035;47.792;8.724;2022-07-10T09:19:40;7.13;;;3.20;;
68212;SDS011;55035;47.792;8.724;2022-07-10T09:22:08;6.38;;;3.28;;
68212;SDS011;55035;47.792;8.724;2022-07-10T09:24:35;7.15;;;3.50;;
68212;SDS011;55035;47.792;8.724;2022-07-10T09:27:03;6.68;;;3.33;;
68212;SDS011;55035;47.792;8.724;2022-07-10T09:29:31;6.63;;;3.22;;
68212;SDS011;55035;47.792;8.724;2022-07-10T09:32:00;7.03;;;3.38;;
68212;SDS011;55035;47.792;8.724;2022-07-10T09:37:22;7.28;;;3.05;;
68212;SDS011;55035;47.792;8.724;2022-07-10T09:39:53;6.55;;;3.00;;
68212;SDS011;55035;47.792;8.724;2022-07-10T09:42:27;6.85;;;3.40;;
68212;SDS011;55035;47.792;8.724;2022-07-10T09:47:37;7.00;;;2.80;;
68212;SDS011;55035;47.792;8.724;2022-07-10T09:50:05;6.38;;;2.90;;
68212;SDS011;55035;47.792;8.724;2022-07-10T09:52:46;6.22;;;2.83;;
68212;SDS011;55035;47.792;8.724;2022-07-10T09:55:12;7.90;;;2.78;;
68212;SDS011;55035;47.792;8.724;2022-07-10T09:57:41;6.63;;;2.78;;
68212;SDS011;55035;47.792;8.724;2022-07-10T10:00:10;6.72;;;2.55;;
68212;SDS011;55035;47.792;8.724;2022-07-10T10:02:39;5.90;;;2.63;;
68212;SDS011;55035;47.792;8.724;2022-07-10T10:05:06;6.57;;;2.60;;
68212;SDS011;55035;47.792;8.724;2022-07-10T10:07:33;6.28;;;2.90;;
68212;SDS011;55035;47.792;8.724;2022-07-10T10:10:03;6.27;;;2.80;;
68212;SDS011;55035;47.792;8.724;2022-07-10T10:12:31;6.50;;;2.83;;
68212;SDS011;55035;47.792;8.724;2022-07-10T10:14:58;6.77;;;3.00;;
68212;SDS011;55035;47.792;8.724;2022-07-10T10:17:26;6.53;;;3.08;;
68212;SDS011;55035;47.792;8.724;2022-07-10T10:19:55;6.60;;;2.90;;
68212;SDS011;55035;47.792;8.724;2022-07-10T10:22:40;5.70;;;2.80;;
68212;SDS011;55035;47.792;8.724;2022-07-10T10:25:08;6.75;;;3.00;;
68212;SDS011;55035;47.792;8.724;2022-07-10T10:27:36;7.70;;;3.50;;
68212;SDS011;55035;47.792;8.724;2022-07-10T10:30:04;7.10;;;2.80;;
68212;SDS011;55035;47.792;8.724;2022-07-10T10:32:32;6.85;;;2.90;;
68212;SDS011;55035;47.792;8.724;2022-07-10T10:35:02;6.10;;;2.83;;
68212;SDS011;55035;47.792;8.724;2022-07-10T10:37:35;7.18;;;2.70;;
68212;SDS011;55035;47.792;8.724;2022-07-10T10:40:04;6.32;;;3.15;;
68212;SDS011;55035;47.792;8.724;2022-07-10T10:42:32;6.32;;;3.00;;
68212;SDS011;55035;47.792;8.724;2022-07-10T10:47:56;7.35;;;3.30;;
68212;SDS011;55035;47.792;8.724;2022-07-10T10:50:36;6.80;;;3.10;;
68212;SDS011;55035;47.792;8.724;2022-07-10T10:53:04;7.18;;;3.00;;
68212;SDS011;55035;47.792;8.724;2022-07-10T10:55:31;5.93;;;2.72;;
68212;SDS011;55035;47.792;8.724;2022-07-10T10:58:11;6.50;;;3.00;;
68212;SDS011;55035;47.792;8.724;2022-07-10T11:00:38;5.53;;;2.50;;
68212;SDS011;55035;47.792;8.724;2022-07-10T11:03:16;6.53;;;2.50;;
68212;SDS011;55035;47.792;8.724;2022-07-10T11:05:46;6.33;;;2.70;;
68212;SDS011;55035;47.792;8.724;2022-07-10T11:08:13;5.93;;;2.57;;
68212;SDS011;55035;47.792;8.724;2022-07-10T11:10:40;7.03;;;2.60;;
68212;SDS011;55035;47.792;8.724;2022-07-10T11:13:08;5.82;;;2.70;;
68212;SDS011;55035;47.792;8.724;2022-07-10T11:15:36;6.20;;;2.93;;
68212;SDS011;55035;47.792;8.724;2022-07-10T11:18:03;5.70;;;2.67;;
68212;SDS011;55035;47.792;8.724;2022-07-10T11:20:31;7.63;;;2.70;;
68212;SDS011;55035;47.792;8.724;2022-07-10T11:23:12;6.57;;;2.65;;
68212;SDS011;55035;47.792;8.724;2022-07-10T11:25:48;5.93;;;2.60;;
68212;SDS011;55035;47.792;8.724;2022-07-10T11:28:32;6.40;;;2.60;;
68212;SDS011;55035;47.792;8.724;2022-07-10T11:31:01;6.70;;;2.70;;
68212;SDS011;55035;47.792;8.724;2022-07-10T11:33:30;6.57;;;2.65;;
68212;SDS011;55035;47.792;8.724;2022-07-10T11:36:08;6.53;;;2.80;;
68212;SDS011;55035;47.792;8.724;2022-07-10T11:38:37;7.25;;;2.70;;
68212;SDS011;55035;47.792;8.724;2022-07-10T11:41:04;6.77;;;2.53;;
68212;SDS011;55035;47.792;8.724;2022-07-10T11:43:45;6.07;;;2.50;;
68212;SDS011;55035;47.792;8.724;2022-07-10T11:46:12;5.80;;;2.50;;
68212;SDS011;55035;47.792;8.724;2022-07-10T11:48:39;6.65;;;2.45;;
68212;SDS011;55035;47.792;8.724;2022-07-10T11:51:15;5.40;;;2.53;;
68212;SDS011;55035;47.792;8.724;2022-07-10T11:53:44;6.30;;;2.70;;
68212;SDS011;55035;47.792;8.724;2022-07-10T11:56:19;6.57;;;2.97;;
68212;SDS011;55035;47.792;8.724;2022-07-10T11:58:53;6.20;;;2.55;;
68212;SDS011;55035;47.792;8.724;2022-07-10T12:01:20;5.53;;;2.60;;
68212;SDS011;55035;47.792;8.724;2022-07-10T12:03:53;5.70;;;2.78;;
68212;SDS011;55035;47.792;8.724;2022-07-10T12:06:21;5.68;;;2.50;;
68212;SDS011;55035;47.792;8.724;2022-07-10T12:08:51;5.70;;;2.40;;
68212;SDS011;55035;47.792;8.724;2022-07-10T12:11:18;6.53;;;2.60;;
68212;SDS011;55035;47.792;8.724;2022-07-10T12:13:47;6.30;;;2.80;;
68212;SDS011;55035;47.792;8.724;2022-07-10T12:16:14;6.43;;;2.60;;
68212;SDS011;55035;47.792;8.724;2022-07-10T12:18:41;5.55;;;2.60;;
68212;SDS011;55035;47.792;8.724;2022-07-10T12:21:09;6.80;;;2.90;;
68212;SDS011;55035;47.792;8.724;2022-07-10T12:23:36;6.10;;;2.50;;
68212;SDS011;55035;47.792;8.724;2022-07-10T12:26:09;5.63;;;2.57;;
68212;SDS011;55035;47.792;8.724;2022-07-10T12:28:52;5.43;;;2.50;;
68212;SDS011;55035;47.792;8.724;2022-07-10T12:31:20;6.13;;;2.75;;
68212;SDS011;55035;47.792;8.724;2022-07-10T12:33:49;5.70;;;2.60;;
68212;SDS011;55035;47.792;8.724;2022-07-10T12:36:17;6.88;;;2.53;;
68212;SDS011;55035;47.792;8.724;2022-07-10T12:38:52;6.18;;;2.42;;
68212;SDS011;55035;47.792;8.724;2022-07-10T12:41:20;6.13;;;2.50;;
68212;SDS011;55035;47.792;8.724;2022-07-10T12:43:50;7.70;;;2.50;;
68212;SDS011;55035;47.792;8.724;2022-07-10T12:46:18;5.63;;;2.40;;
68212;SDS011;55035;47.792;8.724;2022-07-10T12:49:00;6.60;;;2.60;;
68212;SDS011;55035;47.792;8.724;2022-07-10T12:51:28;6.55;;;2.60;;
68212;SDS011;55035;47.792;8.724;2022-07-10T12:53:56;7.10;;;2.50;;
68212;SDS011;55035;47.792;8.724;2022-07-10T12:56:31;5.72;;;2.50;;
68212;SDS011;55035;47.792;8.724;2022-07-10T12:58:59;6.05;;;2.45;;
68212;SDS011;55035;47.792;8.724;2022-07-10T13:01:27;5.78;;;2.30;;
68212;SDS011;55035;47.792;8.724;2022-07-10T13:03:58;6.53;;;2.60;;
68212;SDS011;55035;47.792;8.724;2022-07-10T13:06:26;6.28;;;2.45;;
68212;SDS011;55035;47.792;8.724;2022-07-10T13:08:54;8.32;;;2.80;;
68212;SDS011;55035;47.792;8.724;2022-07-10T13:11:22;6.13;;;2.50;;
68212;SDS011;55035;47.792;8.724;2022-07-10T13:13:50;6.32;;;2.50;;
68212;SDS011;55035;47.792;8.724;2022-07-10T13:16:18;6.43;;;2.70;;
68212;SDS011;55035;47.792;8.724;2022-07-10T13:18:44;6.60;;;2.57;;
68212;SDS011;55035;47.792;8.724;2022-07-10T13:21:12;7.20;;;2.50;;
68212;SDS011;55035;47.792;8.724;2022-07-10T13:23:39;5.90;;;2.47;;
68212;SDS011;55035;47.792;8.724;2022-07-10T13:26:08;6.03;;;2.60;;
68212;SDS011;55035;47.792;8.724;2022-07-10T13:28:35;6.90;;;2.65;;
68212;SDS011;55035;47.792;8.724;2022-07-10T13:31:04;5.95;;;2.38;;
68212;SDS011;55035;47.792;8.724;2022-07-10T13:33:32;5.53;;;2.20;;
68212;SDS011;55035;47.792;8.724;2022-07-10T13:35:59;6.03;;;2.30;;
68212;SDS011;55035;47.792;8.724;2022-07-10T13:38:27;5.75;;;2.35;;
68212;SDS011;55035;47.792;8.724;2022-07-10T13:40:54;6.00;;;2.50;;
68212;SDS011;55035;47.792;8.724;2022-07-10T13:43:21;6.30;;;2.43;;
68212;SDS011;55035;47.792;8.724;2022-07-10T13:45:52;6.30;;;2.35;;
68212;SDS011;55035;47.792;8.724;2022-07-10T13:48:20;6.50;;;2.33;;
68212;SDS011;55035;47.792;8.724;2022-07-10T13:50:49;6.18;;;2.30;;
68212;SDS011;55035;47.792;8.724;2022-07-10T13:53:18;5.25;;;2.38;;
68212;SDS011;55035;47.792;8.724;2022-07-10T13:55:46;6.13;;;2.42;;
68212;SDS011;55035;47.792;8.724;2022-07-10T13:58:13;5.70;;;2.45;;
68212;SDS011;55035;47.792;8.724;2022-07-10T14:00:40;5.97;;;2.42;;
68212;SDS011;55035;47.792;8.724;2022-07-10T14:03:07;6.20;;;2.40;;
68212;SDS011;55035;47.792;8.724;2022-07-10T14:05:36;5.90;;;2.40;;
68212;SDS011;55035;47.792;8.724;2022-07-10T14:08:03;5.85;;;2.30;;
68212;SDS011;55035;47.792;8.724;2022-07-10T14:10:30;6.55;;;2.50;;
68212;SDS011;55035;47.792;8.724;2022-07-10T14:12:57;5.68;;;2.28;;
68212;SDS011;55035;47.792;8.724;2022-07-10T14:15:25;7.55;;;2.40;;
68212;SDS011;55035;47.792;8.724;2022-07-10T14:17:52;6.13;;;2.40;;
68212;SDS011;55035;47.792;8.724;2022-07-10T14:20:20;6.20;;;2.30;;
68212;SDS011;55035;47.792;8.724;2022-07-10T14:22:48;6.20;;;2.20;;
68212;SDS011;55035;47.792;8.724;2022-07-10T14:25:15;8.32;;;2.28;;
68212;SDS011;55035;47.792;8.724;2022-07-10T14:27:42;7.18;;;2.10;;
68212;SDS011;55035;47.792;8.724;2022-07-10T14:30:09;6.37;;;2.30;;
68212;SDS011;55035;47.792;8.724;2022-07-10T14:32:36;7.13;;;2.10;;
68212;SDS011;55035;47.792;8.724;2022-07-10T14:35:06;5.60;;;1.90;;
68212;SDS011;55035;47.792;8.724;2022-07-10T14:37:34;6.13;;;1.97;;
68212;SDS011;55035;47.792;8.724;2022-07-10T14:40:03;6.47;;;2.00;;
68212;SDS011;55035;47.792;8.724;2022-07-10T14:42:31;5.68;;;1.92;;
68212;SDS011;55035;47.792;8.724;2022-07-10T14:44:57;5.05;;;1.85;;
68212;SDS011;55035;47.792;8.724;2022-07-10T14:47:25;6.72;;;3.15;;
68212;SDS011;55035;47.792;8.724;2022-07-10T14:49:54;5.80;;;2.70;;
68212;SDS011;55035;47.792;8.724;2022-07-10T14:52:22;8.15;;;3.15;;
68212;SDS011;55035;47.792;8.724;2022-07-10T14:54:51;6.43;;;3.17;;
68212;SDS011;55035;47.792;8.724;2022-07-10T14:57:19;8.20;;;3.28;;
68212;SDS011;55035;47.792;8.724;2022-07-10T14:59:46;6.15;;;2.95;;
68212;SDS011;55035;47.792;8.724;2022-07-10T15:02:13;5.93;;;3.03;;